sensor_id;sensor_type;location;lat;lon;timestamp;temperature;humidity
3816;DHT22;1923;48.154;11.536;2023-08-08T00:00:45;13.90;99.90
3816;DHT22;1923;48.154;11.536;2023-08-08T00:03:13;14.00;99.90
3816;DHT22;1923;48.154;11.536;2023-08-08T00:05:43;14.10;99.90
3816;DHT22;1923;48.154;11.536;2023-08-08T00:08:14;14.10;99.90
3816;DHT22;1923;48.154;11.536;2023-08-08T00:10:42;14.20;99.90
3816;DHT22;1923;48.154;11.536;2023-08-08T00:13:11;14.20;99.90
3816;DHT22;1923;48.154;11.536;2023-08-08T00:15:39;14.20;99.90
3816;DHT22;1923;48.154;11.536;2023-08-08T00:18:07;14.20;99.90
3816;DHT22;1923;48.154;11.536;2023-08-08T00:20:36;14.30;99.90
3816;DHT22;1923;48.154;11.536;2023-08-08T00:23:06;14.30;99.90
3816;DHT22;1923;48.154;11.536;2023-08-08T00:25:35;14.30;99.90
3816;DHT22;1923;48.154;11.536;2023-08-08T00:28:03;14.30;99.90
3816;DHT22;1923;48.154;11.536;2023-08-08T00:30:32;14.40;99.90
3816;DHT22;1923;48.154;11.536;2023-08-08T00:33:00;14.30;99.90
3816;DHT22;1923;48.154;11.536;2023-08-08T00:35:28;14.30;99.90
3816;DHT22;1923;48.154;11.536;2023-08-08T00:37:56;14.40;99.90
3816;DHT22;1923;48.154;11.536;2023-08-08T00:40:25;14.30;99.90
3816;DHT22;1923;48.154;11.536;2023-08-08T00:42:53;14.40;99.90
3816;DHT22;1923;48.154;11.536;2023-08-08T00:45:21;14.30;99.90
3816;DHT22;1923;48.154;11.536;2023-08-08T00:47:50;14.30;99.90
3816;DHT22;1923;48.154;11.536;2023-08-08T00:50:19;14.30;99.90
3816;DHT22;1923;48.154;11.536;2023-08-08T00:52:48;14.40;99.90
3816;DHT22;1923;48.154;11.536;2023-08-08T00:55:16;14.40;99.90
3816;DHT22;1923;48.154;11.536;2023-08-08T00:57:45;14.40;99.90
3816;DHT22;1923;48.154;11.536;2023-08-08T01:00:14;14.40;99.90
3816;DHT22;1923;48.154;11.536;2023-08-08T01:02:42;14.30;99.90
3816;DHT22;1923;48.154;11.536;2023-08-08T01:05:10;14.30;99.90
3816;DHT22;1923;48.154;11.536;2023-08-08T01:07:43;14.30;99.90
3816;DHT22;1923;48.154;11.536;2023-08-08T01:10:17;14.40;99.90
3816;DHT22;1923;48.154;11.536;2023-08-08T01:12:51;14.30;99.90
3816;DHT22;1923;48.154;11.536;2023-08-08T01:15:21;14.40;99.90
3816;DHT22;1923;48.154;11.536;2023-08-08T01:17:50;14.40;99.90
3816;DHT22;1923;48.154;11.536;2023-08-08T01:20:19;14.40;99.90
3816;DHT22;1923;48.154;11.536;2023-08-08T01:22:58;14.40;99.90
3816;DHT22;1923;48.154;11.536;2023-08-08T01:25:31;14.40;99.90
3816;DHT22;1923;48.154;11.536;2023-08-08T01:28:00;14.40;99.90
3816;DHT22;1923;48.154;11.536;2023-08-08T01:30:28;14.40;99.90
3816;DHT22;1923;48.154;11.536;2023-08-08T01:32:56;14.40;99.90
3816;DHT22;1923;48.154;11.536;2023-08-08T01:35:26;14.40;99.90
3816;DHT22;1923;48.154;11.536;2023-08-08T01:38:00;14.40;99.90
3816;DHT22;1923;48.154;11.536;2023-08-08T01:40:30;14.30;99.90
3816;DHT22;1923;48.154;11.536;2023-08-08T01:43:01;14.20;99.90
3816;DHT22;1923;48.154;11.536;2023-08-08T01:45:30;14.20;99.90
3816;DHT22;1923;48.154;11.536;2023-08-08T01:47:59;14.20;99.90
3816;DHT22;1923;48.154;11.536;2023-08-08T01:50:27;14.10;99.90
3816;DHT22;1923;48.154;11.536;2023-08-08T01:52:55;14.10;99.90
3816;DHT22;1923;48.154;11.536;2023-08-08T01:55:23;14.00;99.90
3816;DHT22;1923;48.154;11.536;2023-08-08T01:57:52;14.00;99.90
3816;DHT22;1923;48.154;11.536;2023-08-08T02:00:20;14.00;99.90
3816;DHT22;1923;48.154;11.536;2023-08-08T02:02:49;13.90;99.90
3816;DHT22;1923;48.154;11.536;2023-08-08T02:05:18;13.90;99.90
3816;DHT22;1923;48.154;11.536;2023-08-08T02:07:45;13.80;99.90
3816;DHT22;1923;48.154;11.536;2023-08-08T02:10:13;13.80;99.90
3816;DHT22;1923;48.154;11.536;2023-08-08T02:12:41;13.80;99.90
3816;DHT22;1923;48.154;11.536;2023-08-08T02:15:10;13.70;99.90
3816;DHT22;1923;48.154;11.536;2023-08-08T02:17:38;13.70;99.90
3816;DHT22;1923;48.154;11.536;2023-08-08T02:20:07;13.70;99.90
3816;DHT22;1923;48.154;11.536;2023-08-08T02:22:36;13.70;99.90
3816;DHT22;1923;48.154;11.536;2023-08-08T02:25:04;13.70;99.90
3816;DHT22;1923;48.154;11.536;2023-08-08T02:27:33;13.60;99.90
3816;DHT22;1923;48.154;11.536;2023-08-08T02:30:01;13.60;99.90
3816;DHT22;1923;48.154;11.536;2023-08-08T02:32:30;13.60;99.90
3816;DHT22;1923;48.154;11.536;2023-08-08T02:34:58;13.60;99.90
3816;DHT22;1923;48.154;11.536;2023-08-08T02:37:26;13.50;99.90
3816;DHT22;1923;48.154;11.536;2023-08-08T02:39:54;13.50;99.90
3816;DHT22;1923;48.154;11.536;2023-08-08T02:42:22;13.50;99.90
3816;DHT22;1923;48.154;11.536;2023-08-08T02:44:50;13.50;99.90
3816;DHT22;1923;48.154;11.536;2023-08-08T02:47:18;13.40;99.90
3816;DHT22;1923;48.154;11.536;2023-08-08T02:49:49;13.40;99.90
3816;DHT22;1923;48.154;11.536;2023-08-08T02:52:17;13.40;99.90
3816;DHT22;1923;48.154;11.536;2023-08-08T02:54:46;13.40;99.90
3816;DHT22;1923;48.154;11.536;2023-08-08T02:57:14;13.40;99.90
3816;DHT22;1923;48.154;11.536;2023-08-08T02:59:42;13.40;99.90
3816;DHT22;1923;48.154;11.536;2023-08-08T03:02:10;13.20;99.90
3816;DHT22;1923;48.154;11.536;2023-08-08T03:04:38;13.30;99.90
3816;DHT22;1923;48.154;11.536;2023-08-08T03:07:08;13.20;99.90
3816;DHT22;1923;48.154;11.536;2023-08-08T03:09:36;13.20;99.90
3816;DHT22;1923;48.154;11.536;2023-08-08T03:12:05;13.20;99.90
3816;DHT22;1923;48.154;11.536;2023-08-08T03:14:33;13.20;99.90
3816;DHT22;1923;48.154;11.536;2023-08-08T03:17:01;13.20;99.90
3816;DHT22;1923;48.154;11.536;2023-08-08T03:19:30;13.20;99.90
3816;DHT22;1923;48.154;11.536;2023-08-08T03:21:59;13.20;99.90
3816;DHT22;1923;48.154;11.536;2023-08-08T03:24:29;13.20;99.90
3816;DHT22;1923;48.154;11.536;2023-08-08T03:26:57;13.30;99.90
3816;DHT22;1923;48.154;11.536;2023-08-08T03:29:25;13.30;99.90
3816;DHT22;1923;48.154;11.536;2023-08-08T03:31:53;13.30;99.90
3816;DHT22;1923;48.154;11.536;2023-08-08T03:34:21;13.30;99.90
3816;DHT22;1923;48.154;11.536;2023-08-08T03:36:49;13.40;99.90
3816;DHT22;1923;48.154;11.536;2023-08-08T03:39:17;13.50;99.90
3816;DHT22;1923;48.154;11.536;2023-08-08T03:41:47;13.50;99.90
3816;DHT22;1923;48.154;11.536;2023-08-08T03:44:15;13.60;99.90
3816;DHT22;1923;48.154;11.536;2023-08-08T03:46:43;13.70;99.90
3816;DHT22;1923;48.154;11.536;2023-08-08T03:49:11;13.70;99.90
3816;DHT22;1923;48.154;11.536;2023-08-08T03:51:39;13.70;99.90
3816;DHT22;1923;48.154;11.536;2023-08-08T03:54:07;13.70;99.90
3816;DHT22;1923;48.154;11.536;2023-08-08T03:56:35;13.70;99.90
3816;DHT22;1923;48.154;11.536;2023-08-08T03:59:05;13.80;99.90
3816;DHT22;1923;48.154;11.536;2023-08-08T04:01:33;13.80;99.90
3816;DHT22;1923;48.154;11.536;2023-08-08T04:04:01;13.80;99.90
3816;DHT22;1923;48.154;11.536;2023-08-08T04:06:29;13.80;99.90
3816;DHT22;1923;48.154;11.536;2023-08-08T04:08:57;13.80;99.90
3816;DHT22;1923;48.154;11.536;2023-08-08T04:11:27;13.80;99.90
3816;DHT22;1923;48.154;11.536;2023-08-08T04:13:56;13.80;99.90
3816;DHT22;1923;48.154;11.536;2023-08-08T04:16:25;13.90;99.90
3816;DHT22;1923;48.154;11.536;2023-08-08T04:18:53;13.90;99.90
3816;DHT22;1923;48.154;11.536;2023-08-08T04:21:21;14.00;99.90
3816;DHT22;1923;48.154;11.536;2023-08-08T04:23:50;14.00;99.90
3816;DHT22;1923;48.154;11.536;2023-08-08T04:26:18;14.00;99.90
3816;DHT22;1923;48.154;11.536;2023-08-08T04:28:46;14.00;99.90
3816;DHT22;1923;48.154;11.536;2023-08-08T04:31:14;14.00;99.90
3816;DHT22;1923;48.154;11.536;2023-08-08T04:33:43;14.10;99.90
3816;DHT22;1923;48.154;11.536;2023-08-08T04:36:11;14.10;99.90
3816;DHT22;1923;48.154;11.536;2023-08-08T04:38:39;14.10;99.90
3816;DHT22;1923;48.154;11.536;2023-08-08T04:41:07;14.10;99.90
3816;DHT22;1923;48.154;11.536;2023-08-08T04:43:35;14.20;99.90
3816;DHT22;1923;48.154;11.536;2023-08-08T04:46:03;14.20;99.90
3816;DHT22;1923;48.154;11.536;2023-08-08T04:48:31;14.30;99.90
3816;DHT22;1923;48.154;11.536;2023-08-08T04:51:01;14.30;99.90
3816;DHT22;1923;48.154;11.536;2023-08-08T04:53:29;14.30;99.90
3816;DHT22;1923;48.154;11.536;2023-08-08T04:55:57;14.30;99.90
3816;DHT22;1923;48.154;11.536;2023-08-08T04:58:26;14.40;99.90
3816;DHT22;1923;48.154;11.536;2023-08-08T05:00:53;14.50;99.90
3816;DHT22;1923;48.154;11.536;2023-08-08T05:03:22;14.50;99.90
3816;DHT22;1923;48.154;11.536;2023-08-08T05:05:51;14.50;99.90
3816;DHT22;1923;48.154;11.536;2023-08-08T05:08:20;14.50;99.90
3816;DHT22;1923;48.154;11.536;2023-08-08T05:10:48;14.60;99.90
3816;DHT22;1923;48.154;11.536;2023-08-08T05:13:16;14.70;99.90
3816;DHT22;1923;48.154;11.536;2023-08-08T05:15:47;14.70;99.90
3816;DHT22;1923;48.154;11.536;2023-08-08T05:18:16;14.80;99.90
3816;DHT22;1923;48.154;11.536;2023-08-08T05:20:44;14.80;99.90
3816;DHT22;1923;48.154;11.536;2023-08-08T05:23:12;14.80;99.90
3816;DHT22;1923;48.154;11.536;2023-08-08T05:25:42;14.90;99.90
3816;DHT22;1923;48.154;11.536;2023-08-08T05:28:11;14.90;99.90
3816;DHT22;1923;48.154;11.536;2023-08-08T05:30:39;14.90;99.90
3816;DHT22;1923;48.154;11.536;2023-08-08T05:33:07;14.90;99.90
3816;DHT22;1923;48.154;11.536;2023-08-08T05:35:35;14.90;99.90
3816;DHT22;1923;48.154;11.536;2023-08-08T05:38:04;15.00;99.90
3816;DHT22;1923;48.154;11.536;2023-08-08T05:40:34;15.00;99.90
3816;DHT22;1923;48.154;11.536;2023-08-08T05:43:03;15.00;99.90
3816;DHT22;1923;48.154;11.536;2023-08-08T05:45:31;15.10;99.90
3816;DHT22;1923;48.154;11.536;2023-08-08T05:48:00;15.30;99.90
3816;DHT22;1923;48.154;11.536;2023-08-08T05:50:28;15.50;99.90
3816;DHT22;1923;48.154;11.536;2023-08-08T05:52:56;15.60;99.90
3816;DHT22;1923;48.154;11.536;2023-08-08T05:55:24;15.60;99.90
3816;DHT22;1923;48.154;11.536;2023-08-08T05:57:52;15.80;99.90
3816;DHT22;1923;48.154;11.536;2023-08-08T06:00:25;15.80;99.90
3816;DHT22;1923;48.154;11.536;2023-08-08T06:02:53;15.90;99.90
3816;DHT22;1923;48.154;11.536;2023-08-08T06:05:22;15.80;99.90
3816;DHT22;1923;48.154;11.536;2023-08-08T06:07:51;15.90;99.90
3816;DHT22;1923;48.154;11.536;2023-08-08T06:10:19;16.00;99.90
3816;DHT22;1923;48.154;11.536;2023-08-08T06:12:47;16.10;99.90
3816;DHT22;1923;48.154;11.536;2023-08-08T06:15:15;16.10;99.90
3816;DHT22;1923;48.154;11.536;2023-08-08T06:17:44;16.30;99.90
3816;DHT22;1923;48.154;11.536;2023-08-08T06:20:13;16.20;99.90
3816;DHT22;1923;48.154;11.536;2023-08-08T06:22:41;16.40;99.90
3816;DHT22;1923;48.154;11.536;2023-08-08T06:25:10;16.50;99.90
3816;DHT22;1923;48.154;11.536;2023-08-08T06:27:38;16.50;99.90
3816;DHT22;1923;48.154;11.536;2023-08-08T06:30:08;16.50;99.90
3816;DHT22;1923;48.154;11.536;2023-08-08T06:32:36;16.70;99.90
3816;DHT22;1923;48.154;11.536;2023-08-08T06:35:07;16.70;99.90
3816;DHT22;1923;48.154;11.536;2023-08-08T06:37:37;16.80;99.90
3816;DHT22;1923;48.154;11.536;2023-08-08T06:40:06;16.90;99.90
3816;DHT22;1923;48.154;11.536;2023-08-08T06:42:36;17.10;99.90
3816;DHT22;1923;48.154;11.536;2023-08-08T06:45:05;17.20;99.90
3816;DHT22;1923;48.154;11.536;2023-08-08T06:47:33;17.20;99.90
3816;DHT22;1923;48.154;11.536;2023-08-08T06:50:01;17.30;99.90
3816;DHT22;1923;48.154;11.536;2023-08-08T06:52:30;17.50;99.90
3816;DHT22;1923;48.154;11.536;2023-08-08T06:54:58;17.60;99.90
3816;DHT22;1923;48.154;11.536;2023-08-08T06:57:27;17.80;99.90
3816;DHT22;1923;48.154;11.536;2023-08-08T06:59:54;18.00;99.90
3816;DHT22;1923;48.154;11.536;2023-08-08T07:02:23;18.10;99.90
3816;DHT22;1923;48.154;11.536;2023-08-08T07:04:51;18.30;99.90
3816;DHT22;1923;48.154;11.536;2023-08-08T07:07:19;18.30;99.90
3816;DHT22;1923;48.154;11.536;2023-08-08T07:09:49;18.60;99.90
3816;DHT22;1923;48.154;11.536;2023-08-08T07:12:17;18.60;99.90
3816;DHT22;1923;48.154;11.536;2023-08-08T07:14:45;18.70;99.90
3816;DHT22;1923;48.154;11.536;2023-08-08T07:17:13;18.80;99.90
3816;DHT22;1923;48.154;11.536;2023-08-08T07:19:42;18.90;99.90
3816;DHT22;1923;48.154;11.536;2023-08-08T07:22:10;18.90;99.90
3816;DHT22;1923;48.154;11.536;2023-08-08T07:24:38;19.00;99.90
3816;DHT22;1923;48.154;11.536;2023-08-08T07:27:07;19.10;99.90
3816;DHT22;1923;48.154;11.536;2023-08-08T07:29:38;19.00;99.90
3816;DHT22;1923;48.154;11.536;2023-08-08T07:32:07;19.20;99.90
3816;DHT22;1923;48.154;11.536;2023-08-08T07:34:35;19.10;99.90
3816;DHT22;1923;48.154;11.536;2023-08-08T07:37:03;19.20;99.90
3816;DHT22;1923;48.154;11.536;2023-08-08T07:39:31;19.40;99.90
3816;DHT22;1923;48.154;11.536;2023-08-08T07:42:00;19.50;99.90
3816;DHT22;1923;48.154;11.536;2023-08-08T07:44:29;19.50;99.90
3816;DHT22;1923;48.154;11.536;2023-08-08T07:46:58;19.80;99.90
3816;DHT22;1923;48.154;11.536;2023-08-08T07:49:26;19.80;99.90
3816;DHT22;1923;48.154;11.536;2023-08-08T07:51:54;20.00;99.90
3816;DHT22;1923;48.154;11.536;2023-08-08T07:54:22;20.00;99.90
3816;DHT22;1923;48.154;11.536;2023-08-08T07:56:50;20.20;99.90
3816;DHT22;1923;48.154;11.536;2023-08-08T07:59:18;20.50;99.90
3816;DHT22;1923;48.154;11.536;2023-08-08T08:01:48;20.60;99.90
3816;DHT22;1923;48.154;11.536;2023-08-08T08:04:16;21.00;99.90
3816;DHT22;1923;48.154;11.536;2023-08-08T08:06:44;21.30;99.90
3816;DHT22;1923;48.154;11.536;2023-08-08T08:09:12;21.70;99.90
3816;DHT22;1923;48.154;11.536;2023-08-08T08:11:40;22.00;99.90
3816;DHT22;1923;48.154;11.536;2023-08-08T08:14:08;22.60;99.90
3816;DHT22;1923;48.154;11.536;2023-08-08T08:16:36;23.10;99.90
3816;DHT22;1923;48.154;11.536;2023-08-08T08:19:06;23.90;99.90
3816;DHT22;1923;48.154;11.536;2023-08-08T08:21:37;24.80;99.00
3816;DHT22;1923;48.154;11.536;2023-08-08T08:24:06;25.30;97.70
3816;DHT22;1923;48.154;11.536;2023-08-08T08:26:34;25.30;97.20
3816;DHT22;1923;48.154;11.536;2023-08-08T08:29:02;25.60;96.70
3816;DHT22;1923;48.154;11.536;2023-08-08T08:31:30;25.70;95.90
3816;DHT22;1923;48.154;11.536;2023-08-08T08:33:58;25.40;96.00
3816;DHT22;1923;48.154;11.536;2023-08-08T08:36:28;25.30;96.10
3816;DHT22;1923;48.154;11.536;2023-08-08T08:38:56;25.30;96.20
3816;DHT22;1923;48.154;11.536;2023-08-08T08:41:27;25.70;95.20
3816;DHT22;1923;48.154;11.536;2023-08-08T08:43:55;25.80;94.00
3816;DHT22;1923;48.154;11.536;2023-08-08T08:46:25;25.70;93.50
3816;DHT22;1923;48.154;11.536;2023-08-08T08:48:55;25.30;93.60
3816;DHT22;1923;48.154;11.536;2023-08-08T08:51:23;24.80;94.20
3816;DHT22;1923;48.154;11.536;2023-08-08T08:53:54;24.60;95.00
3816;DHT22;1923;48.154;11.536;2023-08-08T08:56:23;24.30;95.10
3816;DHT22;1923;48.154;11.536;2023-08-08T08:58:51;24.00;95.40
3816;DHT22;1923;48.154;11.536;2023-08-08T09:01:20;24.00;95.40
3816;DHT22;1923;48.154;11.536;2023-08-08T09:03:49;24.00;94.80
3816;DHT22;1923;48.154;11.536;2023-08-08T09:06:17;23.80;95.00
3816;DHT22;1923;48.154;11.536;2023-08-08T09:08:47;23.40;94.30
3816;DHT22;1923;48.154;11.536;2023-08-08T09:11:20;23.50;94.70
3816;DHT22;1923;48.154;11.536;2023-08-08T09:13:48;23.30;95.10
3816;DHT22;1923;48.154;11.536;2023-08-08T09:16:16;23.40;94.80
3816;DHT22;1923;48.154;11.536;2023-08-08T09:18:44;23.40;94.40
3816;DHT22;1923;48.154;11.536;2023-08-08T09:21:13;23.40;93.90
3816;DHT22;1923;48.154;11.536;2023-08-08T09:23:42;23.40;94.30
3816;DHT22;1923;48.154;11.536;2023-08-08T09:26:13;23.40;94.70
3816;DHT22;1923;48.154;11.536;2023-08-08T09:28:44;23.40;94.50
3816;DHT22;1923;48.154;11.536;2023-08-08T09:31:12;23.60;94.60
3816;DHT22;1923;48.154;11.536;2023-08-08T09:33:40;23.80;94.50
3816;DHT22;1923;48.154;11.536;2023-08-08T09:36:14;24.20;94.10
3816;DHT22;1923;48.154;11.536;2023-08-08T09:38:42;24.20;93.90
3816;DHT22;1923;48.154;11.536;2023-08-08T09:41:10;24.60;93.70
3816;DHT22;1923;48.154;11.536;2023-08-08T09:43:38;24.80;92.80
3816;DHT22;1923;48.154;11.536;2023-08-08T09:46:08;25.10;92.40
3816;DHT22;1923;48.154;11.536;2023-08-08T09:48:39;25.00;92.10
3816;DHT22;1923;48.154;11.536;2023-08-08T09:51:07;24.80;93.00
3816;DHT22;1923;48.154;11.536;2023-08-08T09:53:36;25.40;93.00
3816;DHT22;1923;48.154;11.536;2023-08-08T09:56:05;26.20;91.90
3816;DHT22;1923;48.154;11.536;2023-08-08T09:58:34;26.80;91.40
3816;DHT22;1923;48.154;11.536;2023-08-08T10:01:03;27.50;90.00
3816;DHT22;1923;48.154;11.536;2023-08-08T10:03:33;28.60;87.60
3816;DHT22;1923;48.154;11.536;2023-08-08T10:06:03;29.20;85.40
3816;DHT22;1923;48.154;11.536;2023-08-08T10:08:32;28.90;83.10
3816;DHT22;1923;48.154;11.536;2023-08-08T10:11:00;28.90;83.40
3816;DHT22;1923;48.154;11.536;2023-08-08T10:13:29;29.10;81.10
3816;DHT22;1923;48.154;11.536;2023-08-08T10:15:57;29.20;79.30
3816;DHT22;1923;48.154;11.536;2023-08-08T10:18:27;28.60;79.10
3816;DHT22;1923;48.154;11.536;2023-08-08T10:20:57;28.10;79.70
3816;DHT22;1923;48.154;11.536;2023-08-08T10:23:25;28.30;79.70
3816;DHT22;1923;48.154;11.536;2023-08-08T10:25:56;28.40;76.00
3816;DHT22;1923;48.154;11.536;2023-08-08T10:28:26;28.90;75.10
3816;DHT22;1923;48.154;11.536;2023-08-08T10:30:55;29.70;75.10
3816;DHT22;1923;48.154;11.536;2023-08-08T10:33:25;30.30;73.00
3816;DHT22;1923;48.154;11.536;2023-08-08T10:36:02;31.00;71.40
3816;DHT22;1923;48.154;11.536;2023-08-08T10:38:49;31.10;68.50
3816;DHT22;1923;48.154;11.536;2023-08-08T10:41:20;31.20;69.10
3816;DHT22;1923;48.154;11.536;2023-08-08T10:43:49;30.70;67.70
3816;DHT22;1923;48.154;11.536;2023-08-08T10:46:26;30.10;67.10
3816;DHT22;1923;48.154;11.536;2023-08-08T10:48:59;29.50;68.60
3816;DHT22;1923;48.154;11.536;2023-08-08T10:51:35;29.00;68.20
3816;DHT22;1923;48.154;11.536;2023-08-08T10:54:05;28.60;69.30
3816;DHT22;1923;48.154;11.536;2023-08-08T10:56:35;28.20;70.50
3816;DHT22;1923;48.154;11.536;2023-08-08T10:59:13;28.00;70.60
3816;DHT22;1923;48.154;11.536;2023-08-08T11:01:44;27.90;70.00
3816;DHT22;1923;48.154;11.536;2023-08-08T11:04:13;27.90;71.50
3816;DHT22;1923;48.154;11.536;2023-08-08T11:06:43;27.60;70.40
3816;DHT22;1923;48.154;11.536;2023-08-08T11:09:11;27.80;70.60
3816;DHT22;1923;48.154;11.536;2023-08-08T11:11:41;28.00;69.70
3816;DHT22;1923;48.154;11.536;2023-08-08T11:14:12;28.00;70.20
3816;DHT22;1923;48.154;11.536;2023-08-08T11:16:41;27.60;70.20
3816;DHT22;1923;48.154;11.536;2023-08-08T11:19:10;27.60;70.90
3816;DHT22;1923;48.154;11.536;2023-08-08T11:21:39;27.50;71.20
3816;DHT22;1923;48.154;11.536;2023-08-08T11:24:10;27.40;71.30
3816;DHT22;1923;48.154;11.536;2023-08-08T11:26:40;27.10;71.70
3816;DHT22;1923;48.154;11.536;2023-08-08T11:29:08;26.80;71.40
3816;DHT22;1923;48.154;11.536;2023-08-08T11:31:37;26.30;69.20
3816;DHT22;1923;48.154;11.536;2023-08-08T11:34:05;26.30;69.20
3816;DHT22;1923;48.154;11.536;2023-08-08T11:36:35;26.10;70.30
3816;DHT22;1923;48.154;11.536;2023-08-08T11:39:03;25.90;70.50
3816;DHT22;1923;48.154;11.536;2023-08-08T11:41:36;25.80;69.90
3816;DHT22;1923;48.154;11.536;2023-08-08T11:44:06;25.50;69.00
3816;DHT22;1923;48.154;11.536;2023-08-08T11:46:42;25.30;71.70
3816;DHT22;1923;48.154;11.536;2023-08-08T11:49:10;25.30;72.00
3816;DHT22;1923;48.154;11.536;2023-08-08T11:51:43;25.20;73.10
3816;DHT22;1923;48.154;11.536;2023-08-08T11:54:11;25.20;72.20
3816;DHT22;1923;48.154;11.536;2023-08-08T11:56:41;25.10;73.00
3816;DHT22;1923;48.154;11.536;2023-08-08T11:59:09;25.00;72.00
3816;DHT22;1923;48.154;11.536;2023-08-08T12:01:39;24.90;72.00
3816;DHT22;1923;48.154;11.536;2023-08-08T12:04:09;25.00;71.10
3816;DHT22;1923;48.154;11.536;2023-08-08T12:06:37;25.00;71.40
3816;DHT22;1923;48.154;11.536;2023-08-08T12:09:06;24.90;70.00
3816;DHT22;1923;48.154;11.536;2023-08-08T12:11:35;24.80;72.00
3816;DHT22;1923;48.154;11.536;2023-08-08T12:14:08;24.70;70.40
3816;DHT22;1923;48.154;11.536;2023-08-08T12:16:37;24.70;71.10
3816;DHT22;1923;48.154;11.536;2023-08-08T12:19:08;24.50;69.70
3816;DHT22;1923;48.154;11.536;2023-08-08T12:21:37;24.40;70.50
3816;DHT22;1923;48.154;11.536;2023-08-08T12:24:06;24.40;70.30
3816;DHT22;1923;48.154;11.536;2023-08-08T12:26:35;24.50;71.20
3816;DHT22;1923;48.154;11.536;2023-08-08T12:29:03;24.50;71.50
3816;DHT22;1923;48.154;11.536;2023-08-08T12:31:33;24.70;72.80
3816;DHT22;1923;48.154;11.536;2023-08-08T12:34:01;24.60;73.40
3816;DHT22;1923;48.154;11.536;2023-08-08T12:36:29;24.60;73.80
3816;DHT22;1923;48.154;11.536;2023-08-08T12:38:57;24.50;69.30
3816;DHT22;1923;48.154;11.536;2023-08-08T12:41:25;24.40;69.70
3816;DHT22;1923;48.154;11.536;2023-08-08T12:43:53;24.40;70.30
3816;DHT22;1923;48.154;11.536;2023-08-08T12:46:22;24.30;69.60
3816;DHT22;1923;48.154;11.536;2023-08-08T12:48:51;24.30;69.50
3816;DHT22;1923;48.154;11.536;2023-08-08T12:51:19;24.10;71.10
3816;DHT22;1923;48.154;11.536;2023-08-08T12:53:48;24.20;71.40
3816;DHT22;1923;48.154;11.536;2023-08-08T12:56:16;24.20;72.00
3816;DHT22;1923;48.154;11.536;2023-08-08T12:58:44;24.00;71.90
3816;DHT22;1923;48.154;11.536;2023-08-08T13:01:12;24.10;72.20
3816;DHT22;1923;48.154;11.536;2023-08-08T13:03:40;24.00;73.90
3816;DHT22;1923;48.154;11.536;2023-08-08T13:06:18;23.90;74.00
3816;DHT22;1923;48.154;11.536;2023-08-08T13:08:46;23.90;74.10
3816;DHT22;1923;48.154;11.536;2023-08-08T13:11:14;23.90;73.80
3816;DHT22;1923;48.154;11.536;2023-08-08T13:13:42;23.90;73.10
3816;DHT22;1923;48.154;11.536;2023-08-08T13:16:10;23.80;73.70
3816;DHT22;1923;48.154;11.536;2023-08-08T13:18:38;23.70;72.90
3816;DHT22;1923;48.154;11.536;2023-08-08T13:21:06;23.80;73.80
3816;DHT22;1923;48.154;11.536;2023-08-08T13:23:36;23.90;73.90
3816;DHT22;1923;48.154;11.536;2023-08-08T13:26:04;24.00;72.00
3816;DHT22;1923;48.154;11.536;2023-08-08T13:28:32;24.00;72.00
3816;DHT22;1923;48.154;11.536;2023-08-08T13:30:59;23.90;74.00
3816;DHT22;1923;48.154;11.536;2023-08-08T13:33:28;23.80;73.30
3816;DHT22;1923;48.154;11.536;2023-08-08T13:35:56;23.70;72.60
3816;DHT22;1923;48.154;11.536;2023-08-08T13:38:24;23.70;74.70
3816;DHT22;1923;48.154;11.536;2023-08-08T13:40:53;23.70;74.60
3816;DHT22;1923;48.154;11.536;2023-08-08T13:43:21;23.80;74.40
3816;DHT22;1923;48.154;11.536;2023-08-08T13:45:50;23.80;72.50
3816;DHT22;1923;48.154;11.536;2023-08-08T13:48:18;23.70;73.90
3816;DHT22;1923;48.154;11.536;2023-08-08T13:50:46;23.60;75.30
3816;DHT22;1923;48.154;11.536;2023-08-08T13:53:14;23.60;75.50
3816;DHT22;1923;48.154;11.536;2023-08-08T13:55:43;23.70;75.20
3816;DHT22;1923;48.154;11.536;2023-08-08T13:58:12;23.70;74.70
3816;DHT22;1923;48.154;11.536;2023-08-08T14:00:41;23.70;73.30
3816;DHT22;1923;48.154;11.536;2023-08-08T14:03:09;23.60;73.20
3816;DHT22;1923;48.154;11.536;2023-08-08T14:05:37;23.60;73.70
3816;DHT22;1923;48.154;11.536;2023-08-08T14:08:05;23.50;73.40
3816;DHT22;1923;48.154;11.536;2023-08-08T14:10:36;23.50;75.20
3816;DHT22;1923;48.154;11.536;2023-08-08T14:13:46;23.50;75.30
3816;DHT22;1923;48.154;11.536;2023-08-08T14:16:23;23.50;75.80
3816;DHT22;1923;48.154;11.536;2023-08-08T14:18:59;23.50;75.40
3816;DHT22;1923;48.154;11.536;2023-08-08T14:21:36;23.40;75.40
3816;DHT22;1923;48.154;11.536;2023-08-08T14:24:33;23.30;75.10
3816;DHT22;1923;48.154;11.536;2023-08-08T14:27:01;23.40;76.30
3816;DHT22;1923;48.154;11.536;2023-08-08T14:29:31;23.40;75.70
3816;DHT22;1923;48.154;11.536;2023-08-08T14:31:59;23.40;77.00
3816;DHT22;1923;48.154;11.536;2023-08-08T14:34:30;23.40;77.00
3816;DHT22;1923;48.154;11.536;2023-08-08T14:36:59;23.50;77.90
3816;DHT22;1923;48.154;11.536;2023-08-08T14:39:28;23.50;77.80
3816;DHT22;1923;48.154;11.536;2023-08-08T14:41:56;23.50;78.10
3816;DHT22;1923;48.154;11.536;2023-08-08T14:44:25;23.50;78.50
3816;DHT22;1923;48.154;11.536;2023-08-08T14:46:55;23.50;77.40
3816;DHT22;1923;48.154;11.536;2023-08-08T14:49:23;23.40;77.60
3816;DHT22;1923;48.154;11.536;2023-08-08T14:51:52;23.30;78.20
3816;DHT22;1923;48.154;11.536;2023-08-08T14:54:20;23.30;78.50
3816;DHT22;1923;48.154;11.536;2023-08-08T14:56:52;23.30;77.80
3816;DHT22;1923;48.154;11.536;2023-08-08T14:59:20;23.00;77.90
3816;DHT22;1923;48.154;11.536;2023-08-08T15:01:49;23.20;79.20
3816;DHT22;1923;48.154;11.536;2023-08-08T15:04:19;23.20;79.40
3816;DHT22;1923;48.154;11.536;2023-08-08T15:06:47;23.10;78.70
3816;DHT22;1923;48.154;11.536;2023-08-08T15:09:15;23.10;79.10
3816;DHT22;1923;48.154;11.536;2023-08-08T15:11:43;23.00;79.20
3816;DHT22;1923;48.154;11.536;2023-08-08T15:14:11;23.10;78.60
3816;DHT22;1923;48.154;11.536;2023-08-08T15:16:40;23.10;78.80
3816;DHT22;1923;48.154;11.536;2023-08-08T15:19:09;23.10;79.20
3816;DHT22;1923;48.154;11.536;2023-08-08T15:21:39;23.20;80.20
3816;DHT22;1923;48.154;11.536;2023-08-08T15:24:08;23.20;78.80
3816;DHT22;1923;48.154;11.536;2023-08-08T15:26:36;23.30;79.90
3816;DHT22;1923;48.154;11.536;2023-08-08T15:29:04;23.30;80.40
3816;DHT22;1923;48.154;11.536;2023-08-08T15:31:32;23.30;79.90
3816;DHT22;1923;48.154;11.536;2023-08-08T15:34:02;23.20;80.20
3816;DHT22;1923;48.154;11.536;2023-08-08T15:36:31;23.30;79.90
3816;DHT22;1923;48.154;11.536;2023-08-08T15:39:00;23.30;80.20
3816;DHT22;1923;48.154;11.536;2023-08-08T15:41:28;23.30;80.30
3816;DHT22;1923;48.154;11.536;2023-08-08T15:43:57;23.30;79.90
3816;DHT22;1923;48.154;11.536;2023-08-08T15:46:25;23.30;80.80
3816;DHT22;1923;48.154;11.536;2023-08-08T15:48:53;23.30;80.30
3816;DHT22;1923;48.154;11.536;2023-08-08T15:51:21;23.30;80.80
3816;DHT22;1923;48.154;11.536;2023-08-08T15:53:49;23.30;81.60
3816;DHT22;1923;48.154;11.536;2023-08-08T15:56:19;23.40;80.60